createdAt,value
2022-09-26T00:00:45.153Z,89.17
2022-09-26T00:01:45.248Z,89.37
2022-09-26T00:02:45.290Z,88.65
2022-09-26T00:03:45.121Z,89.06
2022-09-26T00:04:45.133Z,89.06
2022-09-26T00:05:45.133Z,89.11
2022-09-26T00:06:45.090Z,89.58
2022-09-26T00:07:45.071Z,89.51
2022-09-26T00:08:45.074Z,89.61
2022-09-26T00:09:45.062Z,89.20
2022-09-26T00:10:45.050Z,89.61
2022-09-26T00:11:45.024Z,89.58
2022-09-26T00:12:45.041Z,89.88
2022-09-26T00:13:45.004Z,89.61
2022-09-26T00:14:44.994Z,89.82
2022-09-26T00:15:44.991Z,89.72
2022-09-26T00:16:45.067Z,89.58
2022-09-26T00:17:44.965Z,89.92
2022-09-26T00:18:44.965Z,89.61
2022-09-26T00:19:44.940Z,89.72
2022-09-26T00:20:44.943Z,89.82
2022-09-26T00:21:44.935Z,90.02
2022-09-26T00:22:44.910Z,89.82
2022-09-26T00:23:44.921Z,90.12
2022-09-26T00:24:44.891Z,90.33
2022-09-26T00:25:44.882Z,90.02
2022-09-26T00:26:44.864Z,90.33
2022-09-26T00:27:44.842Z,90.64
2022-09-26T00:28:44.840Z,90.33
2022-09-26T00:29:44.857Z,90.53
2022-09-26T00:30:44.897Z,90.64
2022-09-26T00:31:44.807Z,90.53
2022-09-26T00:32:44.790Z,90.53
2022-09-26T00:33:44.786Z,90.23
2022-09-26T00:34:44.788Z,90.39
2022-09-26T00:35:44.758Z,90.53
2022-09-26T00:36:44.747Z,90.53
2022-09-26T00:37:44.841Z,90.49
2022-09-26T00:38:44.723Z,90.29
2022-09-26T00:39:44.731Z,90.19
2022-09-26T00:40:44.777Z,90.29
2022-09-26T00:41:44.725Z,90.49
2022-09-26T00:42:44.680Z,89.78
2022-09-26T00:43:44.664Z,90.19
2022-09-26T00:44:44.666Z,90.08
2022-09-26T00:45:44.729Z,90.19
2022-09-26T00:46:44.633Z,90.19
2022-09-26T00:47:44.616Z,89.78
2022-09-26T00:48:44.619Z,90.19
2022-09-26T00:49:44.597Z,90.19
2022-09-26T00:50:44.632Z,90.49
2022-09-26T00:51:44.571Z,90.39
2022-09-26T00:52:44.562Z,90.19
2022-09-26T00:53:44.572Z,90.19
2022-09-26T00:54:44.556Z,90.08
2022-09-26T00:55:44.540Z,90.49
2022-09-26T00:56:44.529Z,90.59
2022-09-26T00:57:44.516Z,89.98
2022-09-26T00:58:44.497Z,89.82
2022-09-26T00:59:44.479Z,90.02
2022-09-26T01:00:44.471Z,90.23
2022-09-26T01:01:44.586Z,90.23
2022-09-26T01:02:44.514Z,90.12
2022-09-26T01:03:44.439Z,89.98
2022-09-26T01:04:44.428Z,90.23
2022-09-26T01:05:44.424Z,90.74
2022-09-26T01:06:44.419Z,90.64
2022-09-26T01:07:44.389Z,90.39
2022-09-26T01:08:44.406Z,90.33
2022-09-26T01:09:44.391Z,90.43
2022-09-26T01:10:44.364Z,90.43
2022-09-26T01:11:44.377Z,90.08
2022-09-26T01:12:44.354Z,90.39
2022-09-26T01:13:44.319Z,90.29
2022-09-26T01:14:44.309Z,90.59
2022-09-26T01:15:44.301Z,90.49
2022-09-26T01:16:44.319Z,90.29
2022-09-26T01:17:44.294Z,90.29
2022-09-26T01:18:44.276Z,90.29
2022-09-26T01:19:44.262Z,90.08
2022-09-26T01:20:44.240Z,90.29
2022-09-26T01:21:44.243Z,90.59
2022-09-26T01:22:44.235Z,90.49
2022-09-26T01:23:44.219Z,90.49
2022-09-26T01:24:44.194Z,90.29
2022-09-26T01:25:44.259Z,90.80
2022-09-26T01:26:44.176Z,90.39
2022-09-26T01:27:44.196Z,89.98
2022-09-26T01:28:44.154Z,90.49
2022-09-26T01:29:44.149Z,90.49
2022-09-26T01:30:44.202Z,90.19
2022-09-26T01:31:44.121Z,90.12
2022-09-26T01:32:44.106Z,90.59
2022-09-26T01:33:44.113Z,90.59
2022-09-26T01:34:44.088Z,90.19
2022-09-26T01:35:44.073Z,89.98
2022-09-26T01:36:44.079Z,90.19
2022-09-26T01:37:44.053Z,90.70
2022-09-26T01:38:44.069Z,90.70
2022-09-26T01:39:44.031Z,90.19
2022-09-26T01:40:44.087Z,90.70
2022-09-26T01:41:44.047Z,90.29
2022-09-26T01:42:44.002Z,89.88
2022-09-26T01:43:43.990Z,89.98
2022-09-26T01:44:43.979Z,90.59
2022-09-26T01:45:44.048Z,90.70
2022-09-26T01:46:43.953Z,90.39
2022-09-26T01:47:43.936Z,90.29
2022-09-26T01:48:43.929Z,90.08
2022-09-26T01:49:43.935Z,90.33
2022-09-26T01:50:43.915Z,90.59
2022-09-26T01:51:43.899Z,90.74
2022-09-26T01:52:43.904Z,90.49
2022-09-26T01:53:43.875Z,90.74
2022-09-26T01:54:43.857Z,90.49
2022-09-26T01:55:43.864Z,90.53
2022-09-26T01:56:43.833Z,90.19
2022-09-26T01:57:43.942Z,90.80
2022-09-26T01:58:43.811Z,90.74
2022-09-26T01:59:43.856Z,90.49
2022-09-26T02:00:43.825Z,90.23
2022-09-26T02:01:43.888Z,90.43
2022-09-26T02:02:43.885Z,90.29
2022-09-26T02:03:43.764Z,90.12
2022-09-26T02:04:43.744Z,90.08
2022-09-26T02:05:50.828Z,90.12
2022-09-26T02:06:43.727Z,90.43
2022-09-26T02:07:43.709Z,90.23
2022-09-26T02:08:43.701Z,90.29
2022-09-26T02:09:43.711Z,90.19
2022-09-26T02:10:43.708Z,90.59
2022-09-26T02:11:43.674Z,89.78
2022-09-26T02:12:43.655Z,90.59
2022-09-26T02:13:43.661Z,89.98
2022-09-26T02:14:43.647Z,89.88
2022-09-26T02:15:43.647Z,90.08
2022-09-26T02:16:43.684Z,90.19
2022-09-26T02:17:43.601Z,89.98
2022-09-26T02:18:43.590Z,90.08
2022-09-26T02:19:43.581Z,90.08
2022-09-26T02:20:43.571Z,89.67
2022-09-26T02:21:43.564Z,90.19
2022-09-26T02:22:43.562Z,89.67
2022-09-26T02:23:43.579Z,89.26
2022-09-26T02:24:43.518Z,89.47
2022-09-26T02:25:43.524Z,89.47
2022-09-26T02:26:43.491Z,89.78
2022-09-26T02:27:43.530Z,90.29
2022-09-26T02:28:43.499Z,90.19
2022-09-26T02:29:43.484Z,89.67
2022-09-26T02:30:43.459Z,90.19
2022-09-26T02:31:43.522Z,90.19
2022-09-26T02:32:43.422Z,90.19
2022-09-26T02:33:43.438Z,89.98
2022-09-26T02:34:43.423Z,90.19
2022-09-26T02:35:43.403Z,89.88
2022-09-26T02:36:43.384Z,89.88
2022-09-26T02:37:43.371Z,89.88
2022-09-26T02:38:43.370Z,90.08
2022-09-26T02:39:43.369Z,89.88
2022-09-26T02:40:43.398Z,89.88
2022-09-26T02:41:43.344Z,90.04
2022-09-26T02:42:43.314Z,89.98
2022-09-26T02:43:43.317Z,89.88
2022-09-26T02:44:43.289Z,90.19
2022-09-26T02:45:43.392Z,89.88
2022-09-26T02:46:43.269Z,90.19
2022-09-26T02:47:43.270Z,90.19
2022-09-26T02:48:43.243Z,90.29
2022-09-26T02:49:43.234Z,90.14
2022-09-26T02:50:43.231Z,89.88
2022-09-26T02:51:43.219Z,89.67
2022-09-26T02:52:43.202Z,89.37
2022-09-26T02:53:43.189Z,88.92
2022-09-26T02:54:43.194Z,88.82
2022-09-26T02:55:43.183Z,89.12
2022-09-26T02:56:43.173Z,89.17
2022-09-26T02:57:43.156Z,89.37
2022-09-26T02:58:43.137Z,89.17
2022-09-26T02:59:43.125Z,89.17
2022-09-26T03:00:43.197Z,89.17
2022-09-26T03:01:43.300Z,89.17
2022-09-26T03:02:43.095Z,89.23
2022-09-26T03:03:43.149Z,89.32
2022-09-26T03:04:43.156Z,89.37
2022-09-26T03:05:43.057Z,89.47
2022-09-26T03:06:43.040Z,89.32
2022-09-26T03:07:43.051Z,89.37
2022-09-26T03:08:43.020Z,89.12
2022-09-26T03:09:43.023Z,89.26
2022-09-26T03:10:42.998Z,89.67
2022-09-26T03:11:43.004Z,88.65
2022-09-26T03:12:42.972Z,88.61
2022-09-26T03:13:42.968Z,88.65
2022-09-26T03:14:42.956Z,88.51
2022-09-26T03:15:42.954Z,88.51
2022-09-26T03:16:43.042Z,88.41
2022-09-26T03:17:42.954Z,88.31
2022-09-26T03:18:42.912Z,88.31
2022-09-26T03:19:42.900Z,88.04
2022-09-26T03:20:42.914Z,88.41
2022-09-26T03:21:42.874Z,88.31
2022-09-26T03:22:42.873Z,88.71
2022-09-26T03:23:42.851Z,88.31
2022-09-26T03:24:42.861Z,88.31
2022-09-26T03:25:42.833Z,88.61
2022-09-26T03:26:42.855Z,88.10
2022-09-26T03:27:42.812Z,88.00
2022-09-26T03:28:42.801Z,88.71
2022-09-26T03:29:42.790Z,88.61
2022-09-26T03:30:43.716Z,88.82
2022-09-26T03:31:42.859Z,88.10
2022-09-26T03:32:42.798Z,88.71
2022-09-26T03:33:42.773Z,88.71
2022-09-26T03:34:42.741Z,88.20
2022-09-26T03:35:42.762Z,88.31
2022-09-26T03:36:42.729Z,88.20
2022-09-26T03:37:42.749Z,88.10
2022-09-26T03:38:42.685Z,88.71
2022-09-26T03:39:42.734Z,88.61
2022-09-26T03:40:42.721Z,88.71
2022-09-26T03:41:42.676Z,88.61
2022-09-26T03:42:42.637Z,88.41
2022-09-26T03:43:42.627Z,88.00
2022-09-26T03:44:42.616Z,88.41
2022-09-26T03:45:42.632Z,88.41
2022-09-26T03:46:42.594Z,88.61
2022-09-26T03:47:42.604Z,88.82
2022-09-26T03:48:42.570Z,88.51
2022-09-26T03:49:42.576Z,88.82
2022-09-26T03:50:42.552Z,88.61
2022-09-26T03:51:42.557Z,88.10
2022-09-26T03:52:42.527Z,88.71
2022-09-26T03:53:42.541Z,87.79
2022-09-26T03:54:42.507Z,88.10
2022-09-26T03:55:42.494Z,88.71
2022-09-26T03:56:42.480Z,88.61
2022-09-26T03:57:42.487Z,88.61
2022-09-26T03:58:42.478Z,88.31
2022-09-26T03:59:42.449Z,88.31
2022-09-26T04:00:42.494Z,88.00
2022-09-26T04:01:42.428Z,88.61
2022-09-26T04:02:42.677Z,88.31
2022-09-26T04:03:47.753Z,88.31
2022-09-26T04:04:43.388Z,87.65
2022-09-26T04:05:42.401Z,87.70
2022-09-26T04:06:42.365Z,87.90
2022-09-26T04:07:42.355Z,87.59
2022-09-26T04:08:42.351Z,87.59
2022-09-26T04:09:42.333Z,87.70
2022-09-26T04:10:42.333Z,87.65
2022-09-26T04:11:42.315Z,87.90
2022-09-26T04:12:42.298Z,87.29
2022-09-26T04:13:57.396Z,87.29
2022-09-26T04:14:43.286Z,87.38
2022-09-26T04:15:42.318Z,87.70
2022-09-26T04:16:42.380Z,87.38
2022-09-26T04:17:42.243Z,87.59
2022-09-26T04:18:42.238Z,87.59
2022-09-26T04:19:42.226Z,87.90
2022-09-26T04:20:42.207Z,87.79
2022-09-26T04:21:42.242Z,87.90
2022-09-26T04:22:42.185Z,87.90
2022-09-26T04:23:42.187Z,87.70
2022-09-26T04:24:42.160Z,87.18
2022-09-26T04:25:42.152Z,87.79
2022-09-26T04:26:42.160Z,87.29
2022-09-26T04:27:42.132Z,87.49
2022-09-26T04:28:42.117Z,87.70
2022-09-26T04:29:42.109Z,88.10
2022-09-26T04:30:42.098Z,88.00
2022-09-26T04:31:42.329Z,87.84
2022-09-26T04:32:42.073Z,87.70
2022-09-26T04:33:42.066Z,87.70
2022-09-26T04:34:42.051Z,87.70
2022-09-26T04:35:42.044Z,87.32
2022-09-26T04:36:42.058Z,87.73
2022-09-26T04:37:42.037Z,88.10
2022-09-26T04:38:42.009Z,87.90
2022-09-26T04:39:41.996Z,87.29
2022-09-26T04:40:42.972Z,87.29
2022-09-26T04:41:41.971Z,88.31
2022-09-26T04:42:41.966Z,87.53
2022-09-26T04:43:41.946Z,88.14
2022-09-26T04:44:41.937Z,88.20
2022-09-26T04:45:42.010Z,87.63
2022-09-26T04:46:41.945Z,88.24
2022-09-26T04:47:41.906Z,88.20
2022-09-26T04:48:41.906Z,88.20
2022-09-26T04:49:41.885Z,88.14
2022-09-26T04:50:41.872Z,87.84
2022-09-26T04:51:41.879Z,88.35
2022-09-26T04:52:41.868Z,88.24
2022-09-26T04:53:41.861Z,88.24
2022-09-26T04:54:41.841Z,87.32
2022-09-26T04:55:41.815Z,87.94
2022-09-26T04:56:41.801Z,87.84
2022-09-26T04:57:41.796Z,87.32
2022-09-26T04:58:41.806Z,87.53
2022-09-26T04:59:41.777Z,87.43
2022-09-26T05:00:41.798Z,88.04
2022-09-26T05:01:41.790Z,88.35
2022-09-26T05:02:41.789Z,88.04
2022-09-26T05:03:41.722Z,88.14
2022-09-26T05:04:41.729Z,88.35
2022-09-26T05:05:41.712Z,88.55
2022-09-26T05:06:41.686Z,88.76
2022-09-26T05:07:41.676Z,88.04
2022-09-26T05:08:41.670Z,88.45
2022-09-26T05:09:41.685Z,88.35
2022-09-26T05:10:41.644Z,88.24
2022-09-26T05:11:41.633Z,88.24
2022-09-26T05:12:41.619Z,88.35
2022-09-26T05:13:41.626Z,88.14
2022-09-26T05:14:41.611Z,88.35
2022-09-26T05:15:41.587Z,88.45
2022-09-26T05:16:41.630Z,88.24
2022-09-26T05:17:41.567Z,88.04
2022-09-26T05:18:41.553Z,88.35
2022-09-26T05:19:41.561Z,88.35
2022-09-26T05:20:41.533Z,88.35
2022-09-26T05:21:41.530Z,88.35
2022-09-26T05:22:41.522Z,88.45
2022-09-26T05:23:44.830Z,88.24
2022-09-26T05:24:41.481Z,88.14
2022-09-26T05:25:41.506Z,88.35
2022-09-26T05:26:41.469Z,88.24
2022-09-26T05:27:41.457Z,88.35
2022-09-26T05:28:41.447Z,88.45
2022-09-26T05:29:41.427Z,88.55
2022-09-26T05:30:41.428Z,88.35
2022-09-26T05:31:41.489Z,88.35
2022-09-26T05:32:41.394Z,88.24
2022-09-26T05:33:41.384Z,88.24
2022-09-26T05:34:41.378Z,88.24
2022-09-26T05:35:41.366Z,88.04
2022-09-26T05:36:41.359Z,88.55
2022-09-26T05:37:41.334Z,88.24
2022-09-26T05:38:41.330Z,88.65
2022-09-26T05:39:42.630Z,88.76
2022-09-26T05:40:41.350Z,88.76
2022-09-26T05:41:41.326Z,88.24
2022-09-26T05:42:41.279Z,88.45
2022-09-26T05:43:41.278Z,88.24
2022-09-26T05:44:41.259Z,88.14
2022-09-26T05:45:41.248Z,88.35
2022-09-26T05:46:41.366Z,88.14
2022-09-26T05:47:41.219Z,88.24
2022-09-26T05:48:41.216Z,87.23
2022-09-26T05:49:41.199Z,87.63
2022-09-26T05:50:43.578Z,87.63
2022-09-26T05:51:41.195Z,87.63
2022-09-26T05:52:41.172Z,87.53
2022-09-26T05:53:41.159Z,87.53
2022-09-26T05:54:41.146Z,87.73
2022-09-26T05:55:41.129Z,87.63
2022-09-26T05:56:41.138Z,87.63
2022-09-26T05:57:41.141Z,87.63
2022-09-26T05:58:41.118Z,87.53
2022-09-26T05:59:41.091Z,88.04
2022-09-26T06:00:41.180Z,87.53
2022-09-26T06:01:41.135Z,87.94
2022-09-26T06:02:41.105Z,87.94
2022-09-26T06:03:41.039Z,87.32
2022-09-26T06:04:41.035Z,87.32
2022-09-26T06:05:41.028Z,87.32
2022-09-26T06:06:41.009Z,86.82
2022-09-26T06:07:41.007Z,87.43
2022-09-26T06:08:40.986Z,86.91
2022-09-26T06:09:40.968Z,87.02
2022-09-26T06:10:40.967Z,87.12
2022-09-26T06:11:40.949Z,87.12
2022-09-26T06:12:40.965Z,86.71
2022-09-26T06:13:40.970Z,86.82
2022-09-26T06:14:40.994Z,86.71
2022-09-26T06:15:40.904Z,86.51
2022-09-26T06:16:41.067Z,86.61
2022-09-26T06:17:40.899Z,86.71
2022-09-26T06:18:40.885Z,86.10
2022-09-26T06:19:40.875Z,86.82
2022-09-26T06:20:40.854Z,86.82
2022-09-26T06:21:40.837Z,86.71
2022-09-26T06:22:40.837Z,86.10
2022-09-26T06:23:40.831Z,86.47
2022-09-26T06:24:40.802Z,86.41
2022-09-26T06:25:40.792Z,86.20
2022-09-26T06:26:42.796Z,86.00
2022-09-26T06:27:40.778Z,86.41
2022-09-26T06:28:40.764Z,86.36
2022-09-26T06:29:40.769Z,86.26
2022-09-26T06:30:40.757Z,86.16
2022-09-26T06:31:40.822Z,86.10
2022-09-26T06:32:40.731Z,85.45
2022-09-26T06:33:40.709Z,86.06
2022-09-26T06:34:40.699Z,85.86
2022-09-26T06:35:40.721Z,85.65
2022-09-26T06:36:40.682Z,85.45
2022-09-26T06:37:40.667Z,86.06
2022-09-26T06:38:40.716Z,86.47
2022-09-26T06:39:40.635Z,85.96
2022-09-26T06:40:40.693Z,86.36
2022-09-26T06:41:40.613Z,86.06
2022-09-26T06:42:40.620Z,85.96
2022-09-26T06:43:40.587Z,85.96
2022-09-26T06:44:40.590Z,86.16
2022-09-26T06:45:40.684Z,86.33
2022-09-26T06:46:40.687Z,86.26
2022-09-26T06:47:40.555Z,86.16
2022-09-26T06:48:40.562Z,86.47
2022-09-26T06:49:40.522Z,86.26
2022-09-26T06:50:40.511Z,86.16
2022-09-26T06:51:40.504Z,86.26
2022-09-26T06:52:40.505Z,86.26
2022-09-26T06:53:40.486Z,85.96
2022-09-26T06:54:40.471Z,86.77
2022-09-26T06:55:40.481Z,86.57
2022-09-26T06:56:40.451Z,86.53
2022-09-26T06:57:40.438Z,85.92
2022-09-26T06:58:40.431Z,86.43
2022-09-26T06:59:40.437Z,86.67
2022-09-26T07:00:40.594Z,86.16
2022-09-26T07:01:40.684Z,86.77
2022-09-26T07:02:40.394Z,86.36
2022-09-26T07:03:45.132Z,86.33
2022-09-26T07:04:41.366Z,86.53
2022-09-26T07:05:40.343Z,86.22
2022-09-26T07:06:40.352Z,85.21
2022-09-26T07:07:40.330Z,85.61
2022-09-26T07:09:41.311Z,85.92
2022-09-26T07:10:40.294Z,85.71
2022-09-26T07:12:10.006Z,85.92
2022-09-26T07:12:41.264Z,85.82
2022-09-26T07:13:40.247Z,85.41
2022-09-26T07:14:40.240Z,85.82
2022-09-26T07:15:40.259Z,85.10
2022-09-26T07:16:40.288Z,86.02
2022-09-26T07:17:40.237Z,85.92
2022-09-26T07:18:40.224Z,85.71
2022-09-26T07:19:40.181Z,86.22
2022-09-26T07:20:40.177Z,84.90
2022-09-26T07:21:40.162Z,85.71
2022-09-26T07:22:40.149Z,86.33
2022-09-26T07:23:40.159Z,86.12
2022-09-26T07:24:40.128Z,86.53
2022-09-26T07:25:40.113Z,86.02
2022-09-26T07:26:40.110Z,85.61
2022-09-26T07:27:40.109Z,86.22
2022-09-26T07:28:40.092Z,85.41
2022-09-26T07:29:40.083Z,85.92
2022-09-26T07:30:40.059Z,86.22
2022-09-26T07:31:40.169Z,85.82
2022-09-26T07:32:40.046Z,85.21
2022-09-26T07:33:40.045Z,85.92
2022-09-26T07:34:40.032Z,85.92
2022-09-26T07:35:40.013Z,86.53
2022-09-26T07:36:39.992Z,86.22
2022-09-26T07:37:39.978Z,86.12
2022-09-26T07:38:39.992Z,86.12
2022-09-26T07:39:39.969Z,86.53
2022-09-26T07:40:40.005Z,85.82
2022-09-26T07:41:39.934Z,85.82
2022-09-26T07:42:39.922Z,85.92
2022-09-26T07:44:34.652Z,85.71
2022-09-26T07:45:20.529Z,86.43
2022-09-26T07:45:40.885Z,86.43
2022-09-26T07:46:40.021Z,85.71
2022-09-26T07:47:39.861Z,86.33
2022-09-26T07:48:39.856Z,86.73
2022-09-26T07:49:39.938Z,86.73
2022-09-26T07:50:39.861Z,86.12
2022-09-26T07:51:39.819Z,86.73
2022-09-26T07:52:39.809Z,86.73
2022-09-26T07:53:39.794Z,86.63
2022-09-26T07:54:39.791Z,86.63
2022-09-26T07:55:39.775Z,86.53
2022-09-26T07:56:39.778Z,87.04
2022-09-26T07:57:39.752Z,87.14
2022-09-26T07:58:39.754Z,87.04
2022-09-26T07:59:39.727Z,86.53
2022-09-26T08:00:39.733Z,86.63
2022-09-26T08:01:39.777Z,86.53
2022-09-26T08:02:39.715Z,86.22
2022-09-26T08:03:39.696Z,86.33
2022-09-26T08:04:39.687Z,85.92
2022-09-26T08:05:39.687Z,86.22
2022-09-26T08:06:39.663Z,86.63
2022-09-26T08:07:39.656Z,86.53
2022-09-26T08:08:39.643Z,86.53
2022-09-26T08:09:39.615Z,86.22
2022-09-26T08:10:39.622Z,86.43
2022-09-26T08:11:39.592Z,86.33
2022-09-26T08:12:39.587Z,86.53
2022-09-26T08:13:39.577Z,86.33
2022-09-26T08:14:39.558Z,85.92
2022-09-26T08:15:39.575Z,86.02
2022-09-26T08:16:39.716Z,86.33
2022-09-26T08:17:39.544Z,86.63
2022-09-26T08:18:39.515Z,86.80
2022-09-26T08:19:39.500Z,86.49
2022-09-26T08:20:39.491Z,86.49
2022-09-26T08:21:39.525Z,86.80
2022-09-26T08:22:39.485Z,86.65
2022-09-26T08:23:39.462Z,86.24
2022-09-26T08:24:39.456Z,85.84
2022-09-26T08:25:39.431Z,85.63
2022-09-26T08:26:44.170Z,85.27
2022-09-26T08:27:40.447Z,85.37
2022-09-26T08:28:39.408Z,84.75
2022-09-26T08:29:39.387Z,86.08
2022-09-26T08:30:39.379Z,86.45
2022-09-26T08:31:39.520Z,86.69
2022-09-26T08:32:39.379Z,85.88
2022-09-26T08:33:39.347Z,86.15
2022-09-26T08:34:39.341Z,86.39
2022-09-26T08:35:39.321Z,86.29
2022-09-26T08:36:39.314Z,86.59
2022-09-26T08:37:39.325Z,86.59
2022-09-26T08:38:39.311Z,86.65
2022-09-26T08:39:39.280Z,86.76
2022-09-26T08:40:39.321Z,86.45
2022-09-26T08:41:39.250Z,86.29
2022-09-26T08:42:39.268Z,85.88
2022-09-26T08:43:39.247Z,86.49
2022-09-26T08:44:39.218Z,86.39
2022-09-26T08:45:40.017Z,86.59
2022-09-26T08:46:39.289Z,86.80
2022-09-26T08:47:39.210Z,87.00
2022-09-26T08:48:39.174Z,86.80
2022-09-26T08:49:39.168Z,86.80
2022-09-26T08:50:39.150Z,87.10
2022-09-26T08:51:39.138Z,87.00
2022-09-26T08:52:39.143Z,87.10
2022-09-26T08:53:39.196Z,86.90
2022-09-26T08:54:39.104Z,87.82
2022-09-26T08:55:39.091Z,87.61
2022-09-26T08:56:39.093Z,88.63
2022-09-26T08:57:39.069Z,87.41
2022-09-26T08:58:39.080Z,88.12
2022-09-26T08:59:39.048Z,88.53
2022-09-26T09:00:39.037Z,89.14
2022-09-26T09:01:39.161Z,89.04
2022-09-26T09:02:39.251Z,89.04
2022-09-26T09:03:39.001Z,89.25
2022-09-26T09:04:38.992Z,89.04
2022-09-26T09:05:38.977Z,89.04
2022-09-26T09:06:38.991Z,89.55
2022-09-26T09:07:38.955Z,89.86
2022-09-26T09:08:38.951Z,90.57
2022-09-26T09:09:38.957Z,90.10
2022-09-26T09:10:38.923Z,90.41
2022-09-26T09:11:38.940Z,89.90
2022-09-26T09:12:38.918Z,90.51
2022-09-26T09:13:38.906Z,90.61
2022-09-26T09:14:38.879Z,91.33
2022-09-26T09:15:38.947Z,91.12
2022-09-26T09:16:38.860Z,91.74
2022-09-26T09:17:38.858Z,91.12
2022-09-26T09:18:38.839Z,91.94
2022-09-26T09:19:38.833Z,92.04
2022-09-26T09:20:38.822Z,91.27
2022-09-26T09:21:41.769Z,91.57
2022-09-26T09:22:38.818Z,91.67
2022-09-26T09:23:38.778Z,91.88
2022-09-26T09:24:38.808Z,92.35
2022-09-26T09:25:38.779Z,92.35
2022-09-26T09:27:55.455Z,92.14
2022-09-26T09:28:39.742Z,92.04
2022-09-26T09:29:38.708Z,91.53
2022-09-26T09:30:38.710Z,91.83
2022-09-26T09:31:38.750Z,91.67
2022-09-26T09:32:38.686Z,91.53
2022-09-26T09:33:38.679Z,91.63
2022-09-26T09:34:38.653Z,91.53
2022-09-26T09:35:38.638Z,91.53
2022-09-26T09:36:38.632Z,91.53
2022-09-26T09:37:38.615Z,91.43
2022-09-26T09:38:38.638Z,91.33
2022-09-26T09:39:38.604Z,91.94
2022-09-26T09:40:38.713Z,91.94
2022-09-26T09:41:38.599Z,91.53
2022-09-26T09:42:38.571Z,91.74
2022-09-26T09:43:38.557Z,91.63
2022-09-26T09:44:41.005Z,92.04
2022-09-26T09:45:39.526Z,92.24
2022-09-26T09:46:38.607Z,92.35
2022-09-26T09:47:38.505Z,92.24
2022-09-26T09:48:38.490Z,92.10
2022-09-26T09:49:38.503Z,92.24
2022-09-26T09:50:38.470Z,92.35
2022-09-26T09:51:39.552Z,92.35
2022-09-26T09:52:38.478Z,92.55
2022-09-26T09:53:38.451Z,92.55
2022-09-26T09:54:38.488Z,92.14
2022-09-26T09:55:38.453Z,92.14
2022-09-26T09:56:38.402Z,92.35
2022-09-26T09:57:38.416Z,92.35
2022-09-26T09:58:38.393Z,92.65
2022-09-26T09:59:38.370Z,92.76
2022-09-26T10:00:38.382Z,92.24
2022-09-26T10:01:38.347Z,92.55
2022-09-26T10:02:38.383Z,92.45
2022-09-26T10:03:38.332Z,92.35
2022-09-26T10:04:38.309Z,92.55
2022-09-26T10:05:38.304Z,93.37
2022-09-26T10:06:44.338Z,93.37
2022-09-26T10:07:39.280Z,93.06
2022-09-26T10:08:38.270Z,93.47
2022-09-26T10:09:40.078Z,93.26
2022-09-26T10:10:38.242Z,93.67
2022-09-26T10:11:38.288Z,93.47
2022-09-26T10:12:38.219Z,93.12
2022-09-26T10:13:38.284Z,93.47
2022-09-26T10:14:38.200Z,93.16
2022-09-26T10:15:38.229Z,93.06
2022-09-26T10:16:38.191Z,93.02
2022-09-26T10:17:38.170Z,93.32
2022-09-26T10:18:38.154Z,93.37
2022-09-26T10:19:38.142Z,93.47
2022-09-26T10:20:38.137Z,93.67
2022-09-26T10:21:38.191Z,93.73
2022-09-26T10:22:38.106Z,93.88
2022-09-26T10:23:38.104Z,93.43
2022-09-26T10:24:38.113Z,93.98
2022-09-26T10:25:38.076Z,93.52
2022-09-26T10:26:38.061Z,93.88
2022-09-26T10:27:38.250Z,93.26
2022-09-26T10:28:38.054Z,93.06
2022-09-26T10:29:38.054Z,93.88
2022-09-26T10:30:38.016Z,93.67
2022-09-26T10:31:42.266Z,93.37
2022-09-26T10:32:37.992Z,93.06
2022-09-26T10:33:37.999Z,93.26
2022-09-26T10:34:37.974Z,93.16
2022-09-26T10:35:37.960Z,93.06
2022-09-26T10:36:37.946Z,93.37
2022-09-26T10:37:37.965Z,93.77
2022-09-26T10:38:37.924Z,94.18
2022-09-26T10:39:37.914Z,94.18
2022-09-26T10:40:38.006Z,94.18
2022-09-26T10:41:37.893Z,94.38
2022-09-26T10:42:37.894Z,93.98
2022-09-26T10:43:37.891Z,94.38
2022-09-26T10:44:37.855Z,94.70
2022-09-26T10:45:37.872Z,94.70
2022-09-26T10:46:37.883Z,93.62
2022-09-26T10:47:37.843Z,93.92
2022-09-26T10:48:37.848Z,93.92
2022-09-26T10:49:37.804Z,94.23
2022-09-26T10:50:37.793Z,94.74
2022-09-26T10:51:37.794Z,94.43
2022-09-26T10:52:37.773Z,94.84
2022-09-26T10:53:37.783Z,94.94
2022-09-26T10:54:37.745Z,94.33
2022-09-26T10:55:37.733Z,94.43
2022-09-26T10:56:37.723Z,94.12
2022-09-26T10:57:37.712Z,94.02
2022-09-26T10:58:37.724Z,94.43
2022-09-26T10:59:37.690Z,94.84
2022-09-26T11:00:37.728Z,94.43
2022-09-26T11:01:37.750Z,94.94
2022-09-26T11:02:37.669Z,94.94
2022-09-26T11:03:37.680Z,95.04
2022-09-26T11:04:37.662Z,94.84
2022-09-26T11:05:37.620Z,94.84
2022-09-26T11:06:37.609Z,94.84
2022-09-26T11:07:37.595Z,94.84
2022-09-26T11:08:37.589Z,95.04
2022-09-26T11:09:37.587Z,95.15
2022-09-26T11:10:37.575Z,95.35
2022-09-26T11:11:37.553Z,95.56
2022-09-26T11:12:37.539Z,95.65
2022-09-26T11:13:37.542Z,95.04
2022-09-26T11:14:37.537Z,94.84
2022-09-26T11:15:37.541Z,94.84
2022-09-26T11:16:37.644Z,95.04
2022-09-26T11:17:37.512Z,94.94
2022-09-26T11:18:37.474Z,95.10
2022-09-26T11:19:37.489Z,95.10
2022-09-26T11:20:37.450Z,94.90
2022-09-26T11:21:37.445Z,95.00
2022-09-26T11:22:37.436Z,95.41
2022-09-26T11:23:37.416Z,95.51
2022-09-26T11:24:37.484Z,94.79
2022-09-26T11:25:37.399Z,95.10
2022-09-26T11:26:37.390Z,95.51
2022-09-26T11:27:37.371Z,95.25
2022-09-26T11:28:37.362Z,95.00
2022-09-26T11:29:37.366Z,94.90
2022-09-26T11:30:37.334Z,94.59
2022-09-26T11:31:37.406Z,94.90
2022-09-26T11:32:37.310Z,94.65
2022-09-26T11:33:37.326Z,94.14
2022-09-26T11:34:37.295Z,94.29
2022-09-26T11:35:37.294Z,94.65
2022-09-26T11:36:37.268Z,94.45
2022-09-26T11:37:37.259Z,94.04
2022-09-26T11:38:37.257Z,94.34
2022-09-26T11:39:37.239Z,94.45
2022-09-26T11:40:37.295Z,93.93
2022-09-26T11:41:37.212Z,94.75
2022-09-26T11:42:37.200Z,94.14
2022-09-26T11:43:37.189Z,93.63
2022-09-26T11:44:37.177Z,93.93
2022-09-26T11:45:40.924Z,93.73
2022-09-26T11:46:38.222Z,93.43
2022-09-26T11:47:37.154Z,93.63
2022-09-26T11:48:37.136Z,94.04
2022-09-26T11:49:37.146Z,93.63
2022-09-26T11:50:37.126Z,94.04
2022-09-26T11:51:37.099Z,93.84
2022-09-26T11:52:37.084Z,93.84
2022-09-26T11:53:37.076Z,94.24
2022-09-26T11:54:37.063Z,93.99
2022-09-26T11:55:37.157Z,93.89
2022-09-26T11:56:37.043Z,94.60
2022-09-26T11:57:37.313Z,94.65
2022-09-26T11:58:37.017Z,94.65
2022-09-26T11:59:37.012Z,94.60
2022-09-26T12:00:36.994Z,94.71
2022-09-26T12:01:37.001Z,95.01
2022-09-26T12:02:37.136Z,94.40
2022-09-26T12:03:37.174Z,95.01
2022-09-26T12:04:36.956Z,94.60
2022-09-26T12:05:36.984Z,94.60
2022-09-26T12:06:36.928Z,94.30
2022-09-26T12:07:36.928Z,94.30
2022-09-26T12:08:36.907Z,94.81
2022-09-26T12:09:36.900Z,94.09
2022-09-26T12:10:36.885Z,94.09
2022-09-26T12:11:36.884Z,95.21
2022-09-26T12:12:40.400Z,94.09
2022-09-26T12:13:36.855Z,93.99
2022-09-26T12:14:36.846Z,94.20
2022-09-26T12:15:36.914Z,94.46
2022-09-26T12:16:36.823Z,94.35
2022-09-26T12:17:36.814Z,94.09
2022-09-26T12:18:36.796Z,94.46
2022-09-26T12:19:36.802Z,94.50
2022-09-26T12:20:36.783Z,93.89
2022-09-26T12:21:36.797Z,94.05
2022-09-26T12:22:36.748Z,94.66
2022-09-26T12:23:36.741Z,94.50
2022-09-26T12:24:36.721Z,93.85
2022-09-26T12:25:36.800Z,93.95
2022-09-26T12:26:36.704Z,94.15
2022-09-26T12:27:36.692Z,94.01
2022-09-26T12:28:36.688Z,94.52
2022-09-26T12:29:36.671Z,94.66
2022-09-26T12:30:36.659Z,94.05
2022-09-26T12:31:36.716Z,93.95
2022-09-26T12:32:36.641Z,94.97
2022-09-26T12:33:36.627Z,94.15
2022-09-26T12:34:36.609Z,93.90
2022-09-26T12:35:36.612Z,93.70
2022-09-26T12:36:36.598Z,94.21
2022-09-26T12:37:36.600Z,94.21
2022-09-26T12:38:36.563Z,93.80
2022-09-26T12:39:36.559Z,93.70
2022-09-26T12:40:36.631Z,93.54
2022-09-26T12:41:36.559Z,93.60
2022-09-26T12:42:36.524Z,93.70
2022-09-26T12:43:36.517Z,93.74
2022-09-26T12:44:36.496Z,93.74
2022-09-26T12:45:36.494Z,93.95
2022-09-26T12:46:36.533Z,94.05
2022-09-26T12:47:36.485Z,94.35
2022-09-26T12:48:36.453Z,94.76
2022-09-26T12:49:36.461Z,93.70
2022-09-26T12:50:36.431Z,94.31
2022-09-26T12:51:36.418Z,94.62
2022-09-26T12:52:37.343Z,94.31
2022-09-26T12:53:36.431Z,94.42
2022-09-26T12:54:36.388Z,94.62